sensor_id;sensor_type;location;lat;lon;timestamp;P1;durP1;ratioP1;P2;durP2;ratioP2
19923;SDS011;10124;53.068;18.224;2022-07-23T14:17:25;8.68;;;6.53;;
19923;SDS011;10124;53.068;18.224;2022-07-23T14:19:53;7.70;;;6.95;;
19923;SDS011;10124;53.068;18.224;2022-07-23T14:22:21;7.00;;;6.30;;
19923;SDS011;10124;53.068;18.224;2022-07-23T14:24:49;7.13;;;6.15;;
19923;SDS011;10124;53.068;18.224;2022-07-23T14:27:19;8.75;;;6.13;;
19923;SDS011;10124;53.068;18.224;2022-07-23T14:29:46;7.30;;;5.43;;
19923;SDS011;10124;53.068;18.224;2022-07-23T14:32:15;6.00;;;5.43;;
19923;SDS011;10124;53.068;18.224;2022-07-23T14:34:43;6.25;;;5.13;;
19923;SDS011;10124;53.068;18.224;2022-07-23T14:37:15;5.93;;;5.25;;
19923;SDS011;10124;53.068;18.224;2022-07-23T14:39:54;7.72;;;5.63;;
19923;SDS011;10124;53.068;18.224;2022-07-23T14:42:22;6.10;;;5.50;;
19923;SDS011;10124;53.068;18.224;2022-07-23T14:44:49;8.45;;;5.68;;
19923;SDS011;10124;53.068;18.224;2022-07-23T14:47:16;8.40;;;5.82;;
19923;SDS011;10124;53.068;18.224;2022-07-23T14:49:47;10.25;;;7.95;;
19923;SDS011;10124;53.068;18.224;2022-07-23T14:52:15;9.52;;;6.38;;
19923;SDS011;10124;53.068;18.224;2022-07-23T14:54:42;8.27;;;7.45;;
19923;SDS011;10124;53.068;18.224;2022-07-23T14:57:09;11.63;;;7.65;;
19923;SDS011;10124;53.068;18.224;2022-07-23T14:59:37;9.43;;;8.50;;
19923;SDS011;10124;53.068;18.224;2022-07-23T15:02:04;13.23;;;8.88;;
19923;SDS011;10124;53.068;18.224;2022-07-23T15:04:32;10.32;;;7.97;;
19923;SDS011;10124;53.068;18.224;2022-07-23T15:07:04;9.75;;;6.47;;
19923;SDS011;10124;53.068;18.224;2022-07-23T15:09:32;10.80;;;7.63;;
19923;SDS011;10124;53.068;18.224;2022-07-23T15:12:01;17.63;;;13.68;;
19923;SDS011;10124;53.068;18.224;2022-07-23T15:14:33;7.72;;;6.93;;
19923;SDS011;10124;53.068;18.224;2022-07-23T15:17:01;16.05;;;9.07;;
19923;SDS011;10124;53.068;18.224;2022-07-23T15:19:28;28.20;;;20.48;;
19923;SDS011;10124;53.068;18.224;2022-07-23T15:21:56;27.58;;;19.85;;
19923;SDS011;10124;53.068;18.224;2022-07-23T15:24:28;22.52;;;16.67;;
19923;SDS011;10124;53.068;18.224;2022-07-23T15:26:56;16.67;;;12.70;;
19923;SDS011;10124;53.068;18.224;2022-07-23T15:29:24;18.35;;;11.50;;
19923;SDS011;10124;53.068;18.224;2022-07-23T15:31:52;20.20;;;13.80;;
19923;SDS011;10124;53.068;18.224;2022-07-23T15:34:25;10.45;;;7.32;;
19923;SDS011;10124;53.068;18.224;2022-07-23T15:36:53;27.20;;;18.67;;
19923;SDS011;10124;53.068;18.224;2022-07-23T15:39:20;22.15;;;15.90;;
19923;SDS011;10124;53.068;18.224;2022-07-23T15:41:48;17.95;;;12.82;;
19923;SDS011;10124;53.068;18.224;2022-07-23T15:44:15;25.48;;;18.90;;
19923;SDS011;10124;53.068;18.224;2022-07-23T15:46:56;19.38;;;14.88;;
19923;SDS011;10124;53.068;18.224;2022-07-23T15:49:25;27.27;;;20.15;;
19923;SDS011;10124;53.068;18.224;2022-07-23T15:51:54;34.00;;;22.48;;
19923;SDS011;10124;53.068;18.224;2022-07-23T15:54:23;16.85;;;13.07;;
19923;SDS011;10124;53.068;18.224;2022-07-23T15:56:51;7.40;;;6.53;;
19923;SDS011;10124;53.068;18.224;2022-07-23T15:59:18;12.82;;;9.32;;
19923;SDS011;10124;53.068;18.224;2022-07-23T16:01:46;14.48;;;9.85;;
19923;SDS011;10124;53.068;18.224;2022-07-23T16:04:14;15.05;;;9.23;;
19923;SDS011;10124;53.068;18.224;2022-07-23T16:06:42;7.90;;;7.07;;
19923;SDS011;10124;53.068;18.224;2022-07-23T16:09:10;6.85;;;6.20;;
19923;SDS011;10124;53.068;18.224;2022-07-23T16:11:45;7.78;;;6.40;;
19923;SDS011;10124;53.068;18.224;2022-07-23T16:14:12;21.55;;;11.82;;
19923;SDS011;10124;53.068;18.224;2022-07-23T16:16:42;14.77;;;10.23;;
19923;SDS011;10124;53.068;18.224;2022-07-23T16:19:15;24.00;;;13.38;;
19923;SDS011;10124;53.068;18.224;2022-07-23T16:21:44;13.27;;;7.70;;
19923;SDS011;10124;53.068;18.224;2022-07-23T16:24:12;8.15;;;6.43;;
19923;SDS011;10124;53.068;18.224;2022-07-23T16:26:40;7.60;;;6.50;;
19923;SDS011;10124;53.068;18.224;2022-07-23T16:29:09;10.23;;;6.53;;
19923;SDS011;10124;53.068;18.224;2022-07-23T16:31:46;19.20;;;14.18;;
19923;SDS011;10124;53.068;18.224;2022-07-23T16:34:15;15.73;;;11.25;;
19923;SDS011;10124;53.068;18.224;2022-07-23T16:36:42;9.13;;;7.07;;
19923;SDS011;10124;53.068;18.224;2022-07-23T16:39:10;6.82;;;6.13;;
19923;SDS011;10124;53.068;18.224;2022-07-23T16:41:38;12.48;;;10.27;;
19923;SDS011;10124;53.068;18.224;2022-07-23T16:44:07;17.35;;;14.15;;
19923;SDS011;10124;53.068;18.224;2022-07-23T16:46:37;11.35;;;8.25;;
19923;SDS011;10124;53.068;18.224;2022-07-23T16:49:05;9.40;;;6.85;;
19923;SDS011;10124;53.068;18.224;2022-07-23T16:51:33;8.90;;;8.00;;
19923;SDS011;10124;53.068;18.224;2022-07-23T16:54:05;9.18;;;7.53;;
19923;SDS011;10124;53.068;18.224;2022-07-23T16:56:33;8.85;;;7.38;;
19923;SDS011;10124;53.068;18.224;2022-07-23T16:59:05;15.35;;;9.35;;
19923;SDS011;10124;53.068;18.224;2022-07-23T17:01:34;19.23;;;14.15;;
19923;SDS011;10124;53.068;18.224;2022-07-23T17:04:03;11.95;;;9.02;;
19923;SDS011;10124;53.068;18.224;2022-07-23T17:06:31;10.05;;;7.32;;
19923;SDS011;10124;53.068;18.224;2022-07-23T17:09:01;8.55;;;6.88;;
19923;SDS011;10124;53.068;18.224;2022-07-23T17:11:32;11.15;;;7.32;;
19923;SDS011;10124;53.068;18.224;2022-07-23T17:14:00;9.30;;;6.95;;
19923;SDS011;10124;53.068;18.224;2022-07-23T17:16:28;9.63;;;6.50;;
19923;SDS011;10124;53.068;18.224;2022-07-23T17:18:56;9.25;;;7.05;;
19923;SDS011;10124;53.068;18.224;2022-07-23T17:21:23;7.25;;;6.55;;
19923;SDS011;10124;53.068;18.224;2022-07-23T17:23:53;10.85;;;7.88;;
19923;SDS011;10124;53.068;18.224;2022-07-23T17:26:20;10.15;;;8.85;;
19923;SDS011;10124;53.068;18.224;2022-07-23T17:28:49;10.23;;;6.57;;
19923;SDS011;10124;53.068;18.224;2022-07-23T17:31:16;8.75;;;6.97;;
19923;SDS011;10124;53.068;18.224;2022-07-23T17:33:43;8.35;;;6.75;;
19923;SDS011;10124;53.068;18.224;2022-07-23T17:36:11;7.85;;;6.90;;
19923;SDS011;10124;53.068;18.224;2022-07-23T17:38:38;8.00;;;7.20;;
19923;SDS011;10124;53.068;18.224;2022-07-23T17:41:06;7.43;;;6.68;;
19923;SDS011;10124;53.068;18.224;2022-07-23T17:43:34;8.75;;;6.68;;
19923;SDS011;10124;53.068;18.224;2022-07-23T17:46:02;11.30;;;8.13;;
19923;SDS011;10124;53.068;18.224;2022-07-23T17:48:30;10.82;;;8.18;;
19923;SDS011;10124;53.068;18.224;2022-07-23T17:50:57;9.93;;;8.02;;
19923;SDS011;10124;53.068;18.224;2022-07-23T17:53:25;8.10;;;7.10;;
19923;SDS011;10124;53.068;18.224;2022-07-23T17:55:54;8.45;;;7.63;;
19923;SDS011;10124;53.068;18.224;2022-07-23T17:58:21;9.18;;;6.80;;
19923;SDS011;10124;53.068;18.224;2022-07-23T18:00:49;13.45;;;7.25;;
19923;SDS011;10124;53.068;18.224;2022-07-23T18:03:18;8.75;;;7.85;;
19923;SDS011;10124;53.068;18.224;2022-07-23T18:05:46;9.48;;;6.90;;
19923;SDS011;10124;53.068;18.224;2022-07-23T18:08:14;9.65;;;7.50;;
19923;SDS011;10124;53.068;18.224;2022-07-23T18:10:43;7.88;;;6.75;;
19923;SDS011;10124;53.068;18.224;2022-07-23T18:13:10;8.02;;;7.03;;
19923;SDS011;10124;53.068;18.224;2022-07-23T18:15:38;7.75;;;6.93;;
19923;SDS011;10124;53.068;18.224;2022-07-23T18:18:05;9.82;;;6.90;;
19923;SDS011;10124;53.068;18.224;2022-07-23T18:20:36;9.02;;;7.57;;
19923;SDS011;10124;53.068;18.224;2022-07-23T18:23:04;9.73;;;7.38;;
19923;SDS011;10124;53.068;18.224;2022-07-23T18:25:31;10.50;;;8.38;;
19923;SDS011;10124;53.068;18.224;2022-07-23T18:27:59;9.02;;;8.10;;
19923;SDS011;10124;53.068;18.224;2022-07-23T18:30:27;10.07;;;8.40;;
19923;SDS011;10124;53.068;18.224;2022-07-23T18:32:54;12.18;;;8.77;;
19923;SDS011;10124;53.068;18.224;2022-07-23T18:35:31;10.27;;;9.27;;
19923;SDS011;10124;53.068;18.224;2022-07-23T18:38:00;11.77;;;10.55;;
19923;SDS011;10124;53.068;18.224;2022-07-23T18:40:31;13.93;;;11.27;;
19923;SDS011;10124;53.068;18.224;2022-07-23T18:42:59;12.35;;;10.73;;
19923;SDS011;10124;53.068;18.224;2022-07-23T18:45:27;13.73;;;10.77;;
19923;SDS011;10124;53.068;18.224;2022-07-23T18:47:56;14.32;;;10.88;;
19923;SDS011;10124;53.068;18.224;2022-07-23T18:50:26;14.88;;;10.35;;
19923;SDS011;10124;53.068;18.224;2022-07-23T18:52:53;11.50;;;10.18;;
19923;SDS011;10124;53.068;18.224;2022-07-23T18:55:24;11.25;;;9.98;;
19923;SDS011;10124;53.068;18.224;2022-07-23T18:57:57;11.13;;;10.02;;
19923;SDS011;10124;53.068;18.224;2022-07-23T19:00:30;13.20;;;9.95;;
19923;SDS011;10124;53.068;18.224;2022-07-23T19:03:02;14.00;;;10.23;;
19923;SDS011;10124;53.068;18.224;2022-07-23T19:05:33;10.45;;;9.00;;
19923;SDS011;10124;53.068;18.224;2022-07-23T19:08:01;10.30;;;8.80;;
19923;SDS011;10124;53.068;18.224;2022-07-23T19:10:30;10.27;;;9.05;;
19923;SDS011;10124;53.068;18.224;2022-07-23T19:12:57;13.20;;;9.00;;
19923;SDS011;10124;53.068;18.224;2022-07-23T19:15:25;12.73;;;9.68;;
19923;SDS011;10124;53.068;18.224;2022-07-23T19:17:52;9.50;;;8.18;;
19923;SDS011;10124;53.068;18.224;2022-07-23T19:20:20;10.98;;;7.88;;
19923;SDS011;10124;53.068;18.224;2022-07-23T19:22:47;8.65;;;7.68;;
19923;SDS011;10124;53.068;18.224;2022-07-23T19:25:14;9.82;;;7.68;;
19923;SDS011;10124;53.068;18.224;2022-07-23T19:27:42;9.05;;;7.85;;
19923;SDS011;10124;53.068;18.224;2022-07-23T19:30:09;9.02;;;7.47;;
19923;SDS011;10124;53.068;18.224;2022-07-23T19:32:37;9.57;;;8.25;;
19923;SDS011;10124;53.068;18.224;2022-07-23T19:35:05;9.10;;;8.20;;
19923;SDS011;10124;53.068;18.224;2022-07-23T19:37:34;9.27;;;7.22;;
19923;SDS011;10124;53.068;18.224;2022-07-23T19:40:02;11.02;;;7.53;;
19923;SDS011;10124;53.068;18.224;2022-07-23T19:42:32;13.15;;;8.27;;
19923;SDS011;10124;53.068;18.224;2022-07-23T19:45:04;11.93;;;7.13;;
19923;SDS011;10124;53.068;18.224;2022-07-23T19:47:35;11.15;;;7.63;;
19923;SDS011;10124;53.068;18.224;2022-07-23T19:50:05;13.63;;;6.85;;
19923;SDS011;10124;53.068;18.224;2022-07-23T19:52:33;7.88;;;6.07;;
19923;SDS011;10124;53.068;18.224;2022-07-23T19:55:00;7.95;;;5.32;;
19923;SDS011;10124;53.068;18.224;2022-07-23T19:57:28;7.20;;;5.05;;
19923;SDS011;10124;53.068;18.224;2022-07-23T20:00:04;6.70;;;4.93;;
19923;SDS011;10124;53.068;18.224;2022-07-23T20:02:33;5.55;;;4.63;;
19923;SDS011;10124;53.068;18.224;2022-07-23T20:05:01;7.07;;;4.43;;
19923;SDS011;10124;53.068;18.224;2022-07-23T20:07:32;6.72;;;5.47;;
19923;SDS011;10124;53.068;18.224;2022-07-23T20:09:59;8.27;;;5.50;;
19923;SDS011;10124;53.068;18.224;2022-07-23T20:12:27;6.47;;;5.43;;
19923;SDS011;10124;53.068;18.224;2022-07-23T20:14:54;12.32;;;5.75;;
19923;SDS011;10124;53.068;18.224;2022-07-23T20:17:22;10.52;;;6.13;;
19923;SDS011;10124;53.068;18.224;2022-07-23T20:19:49;9.77;;;7.63;;
19923;SDS011;10124;53.068;18.224;2022-07-23T20:22:16;12.00;;;7.25;;
19923;SDS011;10124;53.068;18.224;2022-07-23T20:24:44;11.07;;;6.30;;
19923;SDS011;10124;53.068;18.224;2022-07-23T20:27:11;9.07;;;5.18;;
19923;SDS011;10124;53.068;18.224;2022-07-23T20:29:40;11.23;;;4.93;;
19923;SDS011;10124;53.068;18.224;2022-07-23T20:32:07;12.25;;;6.22;;
19923;SDS011;10124;53.068;18.224;2022-07-23T20:34:34;6.95;;;5.25;;
19923;SDS011;10124;53.068;18.224;2022-07-23T20:37:02;8.32;;;4.95;;
19923;SDS011;10124;53.068;18.224;2022-07-23T20:39:29;8.23;;;4.45;;
19923;SDS011;10124;53.068;18.224;2022-07-23T20:41:56;6.88;;;4.05;;
19923;SDS011;10124;53.068;18.224;2022-07-23T20:44:24;7.40;;;3.97;;
19923;SDS011;10124;53.068;18.224;2022-07-23T20:46:51;6.38;;;4.13;;
19923;SDS011;10124;53.068;18.224;2022-07-23T20:49:25;4.75;;;3.70;;
19923;SDS011;10124;53.068;18.224;2022-07-23T20:51:53;6.93;;;4.10;;
19923;SDS011;10124;53.068;18.224;2022-07-23T20:54:20;7.85;;;4.20;;
19923;SDS011;10124;53.068;18.224;2022-07-23T20:56:47;9.18;;;4.20;;
19923;SDS011;10124;53.068;18.224;2022-07-23T20:59:15;6.80;;;3.45;;
19923;SDS011;10124;53.068;18.224;2022-07-23T21:01:43;6.57;;;3.85;;
19923;SDS011;10124;53.068;18.224;2022-07-23T21:04:10;4.60;;;3.33;;
19923;SDS011;10124;53.068;18.224;2022-07-23T21:06:37;5.82;;;3.53;;
19923;SDS011;10124;53.068;18.224;2022-07-23T21:09:05;15.45;;;4.03;;
19923;SDS011;10124;53.068;18.224;2022-07-23T21:11:32;5.40;;;3.75;;
19923;SDS011;10124;53.068;18.224;2022-07-23T21:14:00;6.25;;;3.25;;
19923;SDS011;10124;53.068;18.224;2022-07-23T21:16:27;6.55;;;3.58;;
19923;SDS011;10124;53.068;18.224;2022-07-23T21:18:55;6.88;;;3.35;;
19923;SDS011;10124;53.068;18.224;2022-07-23T21:21:22;8.07;;;4.20;;
19923;SDS011;10124;53.068;18.224;2022-07-23T21:23:49;7.03;;;3.80;;
19923;SDS011;10124;53.068;18.224;2022-07-23T21:26:18;7.32;;;3.83;;
19923;SDS011;10124;53.068;18.224;2022-07-23T21:29:01;4.70;;;3.40;;
19923;SDS011;10124;53.068;18.224;2022-07-23T21:31:32;5.35;;;3.22;;
19923;SDS011;10124;53.068;18.224;2022-07-23T21:34:00;5.30;;;2.97;;
19923;SDS011;10124;53.068;18.224;2022-07-23T21:36:28;10.30;;;3.78;;
19923;SDS011;10124;53.068;18.224;2022-07-23T21:39:01;6.25;;;3.42;;
19923;SDS011;10124;53.068;18.224;2022-07-23T21:41:30;3.65;;;2.55;;
19923;SDS011;10124;53.068;18.224;2022-07-23T21:43:58;4.80;;;3.05;;
19923;SDS011;10124;53.068;18.224;2022-07-23T21:46:26;6.13;;;3.22;;
19923;SDS011;10124;53.068;18.224;2022-07-23T21:48:55;9.90;;;5.47;;
19923;SDS011;10124;53.068;18.224;2022-07-23T21:51:22;11.57;;;5.25;;
19923;SDS011;10124;53.068;18.224;2022-07-23T21:53:49;6.93;;;4.78;;
19923;SDS011;10124;53.068;18.224;2022-07-23T21:56:18;5.45;;;3.33;;
19923;SDS011;10124;53.068;18.224;2022-07-23T21:58:52;6.80;;;4.00;;
19923;SDS011;10124;53.068;18.224;2022-07-23T22:01:19;5.22;;;3.67;;
19923;SDS011;10124;53.068;18.224;2022-07-23T22:03:47;7.97;;;5.72;;
19923;SDS011;10124;53.068;18.224;2022-07-23T22:06:14;10.85;;;6.22;;
19923;SDS011;10124;53.068;18.224;2022-07-23T22:08:42;9.13;;;5.50;;
19923;SDS011;10124;53.068;18.224;2022-07-23T22:11:09;9.65;;;5.38;;
19923;SDS011;10124;53.068;18.224;2022-07-23T22:13:36;6.68;;;5.25;;
19923;SDS011;10124;53.068;18.224;2022-07-23T22:16:04;12.25;;;5.60;;
19923;SDS011;10124;53.068;18.224;2022-07-23T22:18:31;9.13;;;5.93;;
19923;SDS011;10124;53.068;18.224;2022-07-23T22:20:58;7.85;;;3.28;;
19923;SDS011;10124;53.068;18.224;2022-07-23T22:23:46;6.78;;;4.07;;
19923;SDS011;10124;53.068;18.224;2022-07-23T22:26:13;4.47;;;3.50;;
19923;SDS011;10124;53.068;18.224;2022-07-23T22:28:40;5.78;;;2.67;;
19923;SDS011;10124;53.068;18.224;2022-07-23T22:31:08;5.65;;;3.10;;
19923;SDS011;10124;53.068;18.224;2022-07-23T22:33:38;5.68;;;3.78;;
19923;SDS011;10124;53.068;18.224;2022-07-23T22:36:05;10.43;;;3.78;;
19923;SDS011;10124;53.068;18.224;2022-07-23T22:38:33;8.07;;;3.40;;
19923;SDS011;10124;53.068;18.224;2022-07-23T22:41:00;9.30;;;3.30;;
19923;SDS011;10124;53.068;18.224;2022-07-23T22:43:27;5.53;;;3.90;;
19923;SDS011;10124;53.068;18.224;2022-07-23T22:45:55;6.68;;;3.42;;
19923;SDS011;10124;53.068;18.224;2022-07-23T22:48:22;3.72;;;2.83;;
19923;SDS011;10124;53.068;18.224;2022-07-23T22:50:50;7.03;;;3.35;;
19923;SDS011;10124;53.068;18.224;2022-07-23T22:53:18;6.57;;;3.70;;
19923;SDS011;10124;53.068;18.224;2022-07-23T22:55:45;10.00;;;3.70;;
19923;SDS011;10124;53.068;18.224;2022-07-23T22:58:12;11.75;;;4.40;;
19923;SDS011;10124;53.068;18.224;2022-07-23T23:00:40;6.60;;;3.85;;
19923;SDS011;10124;53.068;18.224;2022-07-23T23:03:07;9.30;;;4.22;;
19923;SDS011;10124;53.068;18.224;2022-07-23T23:05:35;5.15;;;3.70;;
19923;SDS011;10124;53.068;18.224;2022-07-23T23:08:02;5.30;;;4.20;;
19923;SDS011;10124;53.068;18.224;2022-07-23T23:10:30;8.98;;;3.60;;
19923;SDS011;10124;53.068;18.224;2022-07-23T23:12:57;7.82;;;4.15;;
19923;SDS011;10124;53.068;18.224;2022-07-23T23:15:25;7.38;;;4.03;;
19923;SDS011;10124;53.068;18.224;2022-07-23T23:17:53;6.53;;;3.97;;
19923;SDS011;10124;53.068;18.224;2022-07-23T23:20:20;6.10;;;4.22;;
19923;SDS011;10124;53.068;18.224;2022-07-23T23:22:48;6.55;;;4.13;;
19923;SDS011;10124;53.068;18.224;2022-07-23T23:25:15;6.13;;;4.13;;
19923;SDS011;10124;53.068;18.224;2022-07-23T23:27:43;7.72;;;4.13;;
19923;SDS011;10124;53.068;18.224;2022-07-23T23:30:11;5.97;;;3.90;;
19923;SDS011;10124;53.068;18.224;2022-07-23T23:32:38;9.90;;;3.97;;
19923;SDS011;10124;53.068;18.224;2022-07-23T23:35:06;6.63;;;4.70;;
19923;SDS011;10124;53.068;18.224;2022-07-23T23:37:34;9.07;;;4.22;;
19923;SDS011;10124;53.068;18.224;2022-07-23T23:40:04;8.30;;;4.40;;
19923;SDS011;10124;53.068;18.224;2022-07-23T23:42:32;8.30;;;3.80;;
19923;SDS011;10124;53.068;18.224;2022-07-23T23:45:04;6.43;;;3.97;;
19923;SDS011;10124;53.068;18.224;2022-07-23T23:47:32;6.43;;;4.15;;
19923;SDS011;10124;53.068;18.224;2022-07-23T23:49:59;7.55;;;3.85;;
19923;SDS011;10124;53.068;18.224;2022-07-23T23:52:28;8.70;;;3.75;;
19923;SDS011;10124;53.068;18.224;2022-07-23T23:54:55;7.53;;;4.35;;
19923;SDS011;10124;53.068;18.224;2022-07-23T23:57:22;6.07;;;3.90;;
19923;SDS011;10124;53.068;18.224;2022-07-23T23:59:50;9.20;;;4.80;;
